首页
METAR-TAF:

METAR-TAF

机场 :

Valley, 威尔士

纬度: 53-15N, 经度: 004-32W, 海拔: 1米

当前天气观测

该预报发布于22分钟前的11:50 UTC
风速12节,风向
温度 13°C
湿度 62%
气压 1001 hPa
能见度10公里或以上
多云层高于3000英尺

METAR: EGOV 231150Z 35012KT 9999 BKN030 13/06 Q1001 NOSIG RMK BLU BLU

时间: 13:12 (12:12 UTC)

预报

该预报发布于1小时和27分钟前的10:45 UTC
预报有效从23日的 12点(UTC)到 23日的 19点(UTC)
风速13节,风向北转西北
能见度10公里或以上
少量云层高于2400英尺
几率 30% :
短暂存在
从 23日的 15点(UTC)到 23日的 19点(UTC)
能見度: 7000
散云层高于2400英尺, 积雨云.
阵雨

TAF: EGOV 231045Z 2312/2319 34013KT 9999 FEW024 PROB30 TEMPO 2315/2319 7000 SHRA SCT024CB

超过4000个机场的气象观测和天气预报(METAR&TAF报告)。

可查询的气象台以黄色和红色小点在地图上表示。

将鼠标移到小点上方,可查看气象台名称。

然后点击查看天气观测和预报。

如需切换地图:点击带黑十字的绿色按钮放大地图;点击带横线的绿色按钮缩小地图;或者点击绿色箭头查看邻近地区的地图。


METAR-TAF: